Harry Richardson

Jefe de ojeadores - Manchester United
9 Dic 2027
Jueves
Continuar

Personalidad

Adaptabilidad (16) Ambición (15) Controversia (7) Lealtad (4) Presión (13) Profesionalismo (16) Deportividad (8) Temperamento (17)

Perfil

Estilo de dirección Democrático
Licencia Nacional B
Determinación 10
Gestión de personas 9
Motivación 12
Disciplina 11
Satisfacción laboral
100%
Fatiga
0%
Cargo Jefe de ojeadores
Salario 120.2K p/s
Contrato 14.03.2029

Rendimiento

Comportamiento Bueno
Efectividad del entrenamiento
55%
Desarrollo de jugadores
60%
Prevención de lesiones
80%
Implementación táctica
65%

Eventos recientes

Asistió a una reunión de captación ahora
Recomendó un objetivo de fichaje ahora
Recomendó un objetivo de fichaje ahora
Recomendó un objetivo de fichaje ahora
Recomendó un objetivo de fichaje 7d atrás
Recomendó un objetivo de fichaje 7d atrás
Asistió a una reunión de captación 7d atrás
Mejora de licencia disponible 7d atrás

Actualmente siguiendo

126
Jugador Club Estado Habilidad Confianza Observado Última observación Último voto
Wilson Odobert Bristol City Negociando 147 / 155 40% 1 30.08.2027 -
Kota Tawaratsumida River Plate Activo 139 / 154 40% 1 30.08.2027 -
Archie Gray Derby County Activo 145 / 147 40% 1 30.08.2027 -
Kobbie Mainoo Leicester City Activo 152 / 163 40% 1 24.08.2027 -
Nicolò Savona Nottingham Forest Activo 144 / 144 40% 1 24.08.2027 -
Moisés Caicedo Chelsea Activo 171 / 177 40% 18 16.08.2027 -
Gabriel Martinelli Brighton Activo 164 / 168 40% 3 16.08.2027 -
Joško Gvardiol Napoli Negociando 169 / 175 40% 4 16.08.2027 -
Jesús Rodríguez Como Activo 147 / 158 40% 3 12.08.2027 -
Jayden Addai Como Activo 138 / 147 40% 2 12.08.2027 -
Francisco Conceição Juventus Activo 162 / 154 40% 11 11.08.2027 -
Antonio Vergara Napoli Activo 140 / 139 40% 1 11.08.2027 -
Alex Amorim Genoa Activo 133 / 144 40% 1 11.08.2027 -
Matías Soulé AS Roma Activo 160 / 159 40% 8 10.08.2027 -
Alex Scott Bournemouth Activo 154 / 163 40% 1 10.08.2027 -
Christ Inao Oulaï Fiorentina Activo 137 / 139 40% 1 10.08.2027 -
Lucas Bergvall Tottenham Activo 146 / 163 40% 1 10.08.2027 -
Alessandro Bianco Modena Activo 135 / 134 40% 1 10.08.2027 -
Kevin Fulham Activo 154 / 158 40% 4 02.08.2027 -
Ilyas Ansah Hull City Activo 136 / 133 40% 3 02.08.2027 -
Fer López Wolverhampton Perdido 138 / 135 40% 1 02.08.2027 -
Shea Charles Southampton Activo 139 / 133 40% 3 01.08.2027 -
Assane Diao Lazio Activo 148 / 151 40% 5 31.07.2027 -
Yehor Yarmoliuk Brentford Activo 155 / 158 40% 1 31.07.2027 -
Toby Collyer West Bromwich Albion Activo 133 / 141 40% 1 31.07.2027 -
Kwadwo Baah Watford Activo 132 / 131 40% 3 30.07.2027 -
Malick Fofana Sunderland Rechazado 150 / 145 40% 2 30.07.2027 -
Tom Fellows Southampton Activo 137 / 124 40% 1 30.07.2027 -
Christos Mouzakitis Hull City Activo 134 / 146 40% 4 29.07.2027 -
Yankuba Minteh Brighton Rechazado 150 / 154 40% 1 29.07.2027 -
Xavi Simons Tottenham Activo 159 / 161 40% 13 28.07.2027 -
Levi Colwill Chelsea Activo 160 / 164 40% 26 26.07.2027 -
Isaac Price West Bromwich Albion Activo 134 / 142 40% 1 26.07.2027 -
Malo Gusto Chelsea Activo 151 / 161 40% 1 26.07.2027 -
Christ Inao Oulaï Fiorentina Perdido 141 / 146 40% 1 26.07.2027 -
Andre Brooks Sheffield United Activo 129 / 127 40% 1 23.07.2027 -
Ben Gannon Doak Bournemouth Activo 143 / 151 40% 3 22.07.2027 -
Jofre Torrents Ajax Activo 125 / 132 40% 2 22.07.2027 -
Christ Inao Oulaï Fiorentina Perdido 140 / 150 40% 1 22.07.2027 -
Leo Castledine Middlesbrough Activo 130 / 135 40% 3 20.07.2027 -
Oscar Schwartau Norwich City Activo 125 / 124 40% 3 20.07.2027 -
Sascha Britschgi Padova Activo 120 / 120 40% 2 20.07.2027 -
Davide Bartesaghi AC Milan Activo 132 / 131 40% 3 19.07.2027 -
Matheus Gonçalves Al-Ahli Activo 135 / 122 40% 1 19.07.2027 -
Caleb Yirenkyi Coventry City Activo 141 / 136 40% 2 18.07.2027 -
Alphadjo Cissé Como Activo 125 / 130 40% 6 18.07.2027 -
Johan Manzambi Newcastle United Activo 147 / 149 40% 2 17.07.2027 -
Abdul Fatawu Leicester City Activo 144 / 132 40% 1 17.07.2027 -
Shea Lacey Wolverhampton Activo 125 / 133 40% 4 13.07.2027 -
Ousmane Diomande Nottingham Forest Activo 154 / 153 40% 15 12.07.2027 -
Josh King Chelsea Activo 145 / 154 40% 4 12.07.2027 -
Rodrigo Mora AS Roma Activo 142 / 147 40% 1 12.07.2027 -
Kirill Glebov CSKA Moscow Activo 131 / 125 40% 1 10.07.2027 -
Rayan Bournemouth Activo 134 / 152 40% 1 06.07.2027 -
Mfundo Vilakazi Kaizer Chiefs Activo 116 / 129 40% 1 06.07.2027 -
Kutlwano Letlhaku Ajax Cape Town Activo 123 / 113 40% 1 03.07.2027 -
Jorrel Hato Chelsea Rechazado 152 / 161 86% 2 02.07.2027 -
Othmane Maamma Watford Activo 127 / 133 40% 1 30.06.2027 -
Jakub Kiwior Everton Activo 158 / 167 40% 4 27.06.2027 -
Wesley Fofana Chelsea Perdido 162 / 161 40% 19 22.06.2027 -
Curtis Jones Inter Activo 162 / 151 40% 15 22.06.2027 -
Nico González Newcastle United Activo 162 / 162 40% 33 21.06.2027 -
Manu Koné AS Roma Perdido 168 / 166 40% 10 21.06.2027 -
Morgan Rogers Chelsea Activo 164 / 167 40% 17 21.06.2027 -
Declan Rice Arsenal Activo 188 / 178 40% 6 21.06.2027 -
Riccardo Calafiori Hull City Activo 154 / 163 40% 2 21.06.2027 -
Boubacar Kamara Aston Villa Activo 164 / 155 40% 21 19.06.2027 -
Jurriën Timber Arsenal Activo 168 / 162 40% 12 18.06.2027 -
Khéphren Thuram Aston Villa Activo 161 / 152 40% 2 18.06.2027 -
William Saliba Arsenal Activo 174 / 172 40% 21 17.06.2027 -
Jan Paul van Hecke Tottenham Activo 155 / 164 40% 16 17.06.2027 -
Kiernan Dewsbury-Hall Everton Activo 157 / 143 40% 9 16.06.2027 -
Sandro Tonali Tottenham Activo 175 / 182 40% 27 13.06.2027 -
Pierre Kalulu Juventus Perdido 156 / 150 40% 6 13.06.2027 -
Alejandro Balde Barcelona Activo 160 / 164 40% 3 12.06.2027 -
Amadou Onana Aston Villa Activo 158 / 162 40% 19 11.06.2027 -
Sven Botman Newcastle United Perdido 162 / 152 40% 10 07.06.2027 -
Kostantis Tzolakis Hull City Perdido 136 / 139 67% 1 01.06.2027 -
Iliman N'Diaye Everton Activo 157 / 153 40% 7 31.05.2027 Observar
Kenan Yıldız Juventus Activo 162 / 173 40% 9 29.05.2027 -
Vinícius Júnior Arsenal Activo 179 / 175 40% 1 29.05.2027 -
Nicolas Jackson Aston Villa Activo 153 / 143 40% 11 28.05.2027 -
Mohammed Kudus Tottenham Activo 162 / 158 40% 8 27.05.2027 -
Kai Havertz Arsenal Activo 164 / 164 40% 10 24.05.2027 -
Tyler Adams Bournemouth Activo 156 / 143 40% 17 23.05.2027 -
Quinten Timber Crystal Palace Activo 152 / 145 40% 9 21.05.2027 -
Gabriel Arsenal Activo 176 / 182 40% 13 21.05.2027 -
Callum Hudson-Odoi Nottingham Forest Activo 151 / 154 40% 12 21.05.2027 -
Jacob Ramsey Newcastle United Activo 156 / 148 40% 14 21.05.2027 -
Alexis Saelemaekers AC Milan Activo 155 / 160 40% 7 19.05.2027 -
Xaver Schlager Nottingham Forest Activo 148 / 161 40% 12 18.05.2027 -
Óscar Mingueza Crystal Palace Activo 150 / 147 40% 5 18.05.2027 -
Hector Ramirez Newcastle United Activo 153 / 161 40% 30 10.05.2027 -
João Pedro Chelsea Activo 155 / 160 40% 8 07.05.2027 -
Konstantin Tyukavin Inter Activo 136 / 130 40% 1 03.05.2027 -
Ricardo Pepi Chelsea Activo 144 / 141 40% 1 03.05.2027 -
Bruno Guimarães Arsenal Activo 169 / 162 40% 15 24.04.2027 -
Jarrad Branthwaite Everton Activo 157 / 147 40% 12 24.04.2027 -
Adrien Truffert Bournemouth Activo 153 / 151 40% 5 24.04.2027 -
Benjamin White Arsenal Activo 160 / 159 40% 10 12.04.2027 -
James Maddison Tottenham Activo 162 / 161 40% 7 06.04.2027 -
Tino Livramento Newcastle United Activo 156 / 166 40% 3 05.04.2027 -
Jarrod Bowen West Ham United Activo 152 / 144 40% 5 28.03.2027 -
Leon Goretzka Aston Villa Activo 159 / 160 40% 7 07.03.2027 -
Reece James Chelsea Activo 168 / 166 40% 11 28.02.2027 -
Francisco Trincão Zenit Activo 156 / 158 40% 1 27.01.2027 -
Raúl Rangel Sporting CP Activo 132 / 132 66% 1 01.01.2027 Aprobar
Stanislav Agkatsev Sunderland Negociando 132 / 133 66% 1 01.01.2027 Aprobar
Marvin Keller Bayer Leverkusen Negociando 136 / 137 67% 1 01.01.2027 Aprobar
Dmytro Riznyk Cruz Azul Negociando 137 / 137 66% 1 01.01.2027 Aprobar
James Garner Everton Activo 152 / 159 40% 4 30.12.2026 -
Warren Zaïre-Emery Paris Saint-Germain Activo 157 / 161 40% 5 23.12.2026 -
Mikel Merino Arsenal Activo 154 / 159 40% 2 21.12.2026 -
Andrew Robertson Tottenham Activo 155 / 161 40% 6 15.12.2026 -
Ian Maatsen Aston Villa Activo 153 / 160 40% 3 11.12.2026 -
Murillo Nottingham Forest Activo 153 / 156 40% 7 06.12.2026 -
Federico Dimarco Inter Activo 161 / 161 40% 1 30.11.2026 -
Nicolò Rovella Lazio Activo 148 / 160 40% 2 17.11.2026 -
Conor Gallagher Tottenham Activo 150 / 148 40% 6 10.11.2026 -
Malick Thiaw West Ham United Activo 154 / 157 40% 2 12.10.2026 -
Matty Cash Aston Villa Activo 150 / 144 40% 3 09.10.2026 -
Mauro Arambarri River Plate Activo 156 / 136 40% 2 23.09.2026 -
Ezri Konsa Arsenal Activo 148 / 150 40% 2 18.09.2026 -
Fabián Paris Saint-Germain Activo 167 / 162 40% 1 15.09.2026 -
Stanislav Lobotka Galatasaray Activo 158 / 169 40% 1 10.09.2026 -
Rodrigo De Paul Inter Miami CF Activo 153 / 158 40% 1 24.08.2026 -